This is the latest recevied weather packets stored in our database for station/object FW9167. If no packets are shown the sender has not sent any weather packets the latest 10 day(s).
| Time | Temp. | Humidity | Pressure | Rain* | Wind** | Luminosity | Snow |
|---|---|---|---|---|---|---|---|
| 1778149861 | 8.89° C | 67% | 1015.6 hPa | 0 mm | - | - | - |
| 1778144462 | 12.22° C | 63% | 1015.4 hPa | 0 mm | - | - | - |
| 1778143562 | 12.22° C | 64% | 1015.4 hPa | 0 mm | - | - | - |
| 1778134564 | 15° C | 47% | 1015.2 hPa | 0 mm | - | - | - |
| 1778127367 | 15° C | 66% | 1015.5 hPa | 0 mm | - | - | - |
| 1778114762 | 22.22° C | 49% | 1015 hPa | 0 mm | - | - | - |
| 1778112063 | 23.89° C | 39% | 1015.1 hPa | 0 mm | - | - | - |
| 1778111163 | 23.89° C | 42% | 1015.2 hPa | 0 mm | - | - | - |
| 1778110262 | 24.44° C | 38% | 1015.2 hPa | 0 mm | - | - | - |
| 1778093162 | 19.44° C | 42% | 1019.3 hPa | 0 mm | - | - | - |
| 1778090463 | 18.33° C | 39% | 1019.6 hPa | 0 mm | - | - | - |
| 1778083262 | 15° C | 46% | 1019.9 hPa | 0 mm | - | - | - |
| 1778071561 | 6.67° C | 75% | 1017.6 hPa | 0 mm | - | - | - |
| 1778059862 | 9.44° C | 61% | 1016.1 hPa | 0 mm | - | - | - |
| 1778049962 | 10.56° C | 61% | 1015.1 hPa | 0 mm | - | - | - |
| 1778048162 | 11.67° C | 58% | 1014.7 hPa | 0 mm | - | - | - |
| 1778036462 | 18.89° C | 40% | 1012.1 hPa | 0 mm | - | - | - |
| 1778023862 | 23.89° C | 29% | 1010.3 hPa | 0 mm | - | - | - |
| 1778006764 | 23.33° C | 30% | 1011.8 hPa | 0 mm | - | - | - |
| 1778005863 | 23.33° C | 33% | 1011.7 hPa | 0 mm | - | - | - |
| 1778000465 | 20° C | 48% | 1012.3 hPa | 0 mm | - | - | - |
| 1777997762 | 18.89° C | 50% | 1012.3 hPa | 0 mm | - | - | - |
| 1777995062 | 18.33° C | 53% | 1012.1 hPa | 0 mm | - | - | - |
| 1777994163 | 18.33° C | 53% | 1012 hPa | 0 mm | - | - | - |
| 1777991464 | 16.67° C | 59% | 1011.9 hPa | 0 mm | - | - | - |
* Rain since midnight (hover to see other rain measurements)
** Current wind speed in m/s (hover to see current wind gust speed)